createdAt,value
2023-05-05T00:02:18.241Z,8.48
2023-05-05T00:04:46.241Z,8.45
2023-05-05T00:07:14.126Z,8.43
2023-05-05T00:09:42.953Z,8.40
2023-05-05T00:12:10.869Z,8.37
2023-05-05T00:14:38.720Z,8.34
2023-05-05T00:17:06.666Z,8.30
2023-05-05T00:19:34.619Z,8.25
2023-05-05T00:22:02.483Z,8.24
2023-05-05T00:24:30.454Z,8.20
2023-05-05T00:26:58.357Z,8.18
2023-05-05T00:29:26.890Z,8.16
2023-05-05T00:31:54.876Z,8.13
2023-05-05T00:34:22.796Z,8.11
2023-05-05T00:36:50.670Z,8.07
2023-05-05T00:39:18.558Z,8.03
2023-05-05T00:41:46.507Z,7.97
2023-05-05T00:44:14.384Z,7.89
2023-05-05T00:46:43.406Z,7.83
2023-05-05T00:49:12.574Z,7.79
2023-05-05T00:51:40.538Z,7.72
2023-05-05T00:54:08.813Z,7.67
2023-05-05T00:56:37.590Z,7.68
2023-05-05T00:59:05.648Z,7.73
2023-05-05T01:01:33.872Z,7.76
2023-05-05T01:04:01.947Z,7.78
2023-05-05T01:06:51.908Z,7.78
2023-05-05T01:10:07.578Z,7.76
2023-05-05T01:13:09.128Z,7.69
2023-05-05T01:16:01.623Z,7.63
2023-05-05T01:18:42.126Z,7.58
2023-05-05T01:21:16.823Z,7.55
2023-05-05T01:24:06.973Z,7.52
2023-05-05T01:27:09.560Z,7.49
2023-05-05T01:30:03.898Z,7.42
2023-05-05T01:32:41.203Z,7.36
2023-05-05T01:35:18.406Z,7.29
2023-05-05T01:37:52.018Z,7.21
2023-05-05T01:40:28.024Z,7.14
2023-05-05T01:42:58.462Z,7.06
2023-05-05T01:45:32.321Z,6.99
2023-05-05T01:48:02.237Z,6.94
2023-05-05T01:50:31.401Z,6.86
2023-05-05T01:53:01.599Z,6.78
2023-05-05T01:55:32.215Z,6.73
2023-05-05T01:58:02.446Z,6.62
2023-05-05T02:00:32.266Z,6.55
2023-05-05T02:03:04.570Z,6.46
2023-05-05T02:05:34.331Z,6.38
2023-05-05T02:08:05.630Z,6.32
2023-05-05T02:10:34.490Z,6.28
2023-05-05T02:13:03.147Z,6.25
2023-05-05T02:15:33.759Z,6.22
2023-05-05T02:18:02.590Z,6.21
2023-05-05T02:20:31.887Z,6.20
2023-05-05T02:23:00.160Z,6.21
2023-05-05T02:25:37.353Z,6.21
2023-05-05T02:28:11.462Z,6.09
2023-05-05T02:30:40.807Z,5.93
2023-05-05T02:33:11.792Z,5.86
2023-05-05T02:35:42.256Z,5.85
2023-05-05T02:38:17.505Z,5.85
2023-05-05T02:40:49.933Z,5.88
2023-05-05T02:43:21.653Z,5.96
2023-05-05T02:45:49.822Z,6.05
2023-05-05T02:48:18.412Z,6.11
2023-05-05T02:50:46.367Z,6.15
2023-05-05T02:53:29.463Z,6.15
2023-05-05T02:56:11.392Z,6.06
2023-05-05T02:59:05.016Z,6.00
2023-05-05T03:01:59.939Z,5.90
2023-05-05T03:04:37.168Z,5.83
2023-05-05T03:07:11.849Z,5.83
2023-05-05T03:10:06.089Z,5.87
2023-05-05T03:12:48.598Z,5.92
2023-05-05T03:15:34.790Z,5.97
2023-05-05T03:18:06.517Z,6.02
2023-05-05T03:20:35.827Z,6.03
2023-05-05T03:23:08.007Z,6.02
2023-05-05T03:25:46.642Z,6.02
2023-05-05T03:28:33.265Z,6.04
2023-05-05T03:31:04.721Z,6.06
2023-05-05T03:33:33.015Z,6.13
2023-05-05T03:36:01.563Z,6.23
2023-05-05T03:38:29.546Z,6.32
2023-05-05T03:41:00.865Z,6.37
2023-05-05T03:43:29.075Z,6.39
2023-05-05T03:45:57.206Z,6.43
2023-05-05T03:48:25.895Z,6.49
2023-05-05T03:50:54.142Z,6.54
2023-05-05T03:53:23.188Z,6.59
2023-05-05T03:55:52.593Z,6.62
2023-05-05T03:58:20.580Z,6.65
2023-05-05T04:00:48.971Z,6.66
2023-05-05T04:03:18.351Z,6.63
2023-05-05T04:05:47.227Z,6.64
2023-05-05T04:08:15.608Z,6.67
2023-05-05T04:10:43.576Z,6.68
2023-05-05T04:13:12.028Z,6.71
2023-05-05T04:15:47.024Z,6.75
2023-05-05T04:18:15.299Z,6.82
2023-05-05T04:20:43.503Z,6.92
2023-05-05T04:23:11.942Z,7.03
2023-05-05T04:25:41.419Z,7.13
2023-05-05T04:28:10.743Z,7.23
2023-05-05T04:30:38.835Z,7.33
2023-05-05T04:33:06.914Z,7.44
2023-05-05T04:35:35.166Z,7.53
2023-05-05T04:38:03.626Z,7.61
2023-05-05T04:40:31.990Z,7.69
2023-05-05T04:43:00.383Z,7.78
2023-05-05T04:45:28.326Z,7.91
2023-05-05T04:47:56.838Z,8.02
2023-05-05T04:50:24.819Z,8.08
2023-05-05T04:52:52.908Z,8.12
2023-05-05T04:55:21.424Z,8.16
2023-05-05T04:57:49.358Z,8.22
2023-05-05T05:00:17.786Z,8.27
2023-05-05T05:02:45.901Z,8.31
2023-05-05T05:05:14.377Z,8.36
2023-05-05T05:07:42.365Z,8.43
2023-05-05T05:10:10.886Z,8.55
2023-05-05T05:12:39.025Z,8.70
2023-05-05T05:15:08.128Z,8.85
2023-05-05T05:17:36.336Z,9.00
2023-05-05T05:20:05.377Z,9.16
2023-05-05T05:22:35.052Z,9.32
2023-05-05T05:25:03.466Z,9.46
2023-05-05T05:27:32.000Z,9.63
2023-05-05T05:30:00.073Z,9.75
2023-05-05T05:32:29.639Z,9.90
2023-05-05T05:34:57.673Z,10.40
2023-05-05T05:37:29.790Z,10.93
2023-05-05T05:39:58.151Z,11.28
2023-05-05T05:42:26.867Z,11.62
2023-05-05T05:44:55.060Z,11.86
2023-05-05T05:47:23.952Z,12.05
2023-05-05T05:49:52.263Z,12.33
2023-05-05T05:52:20.753Z,12.56
2023-05-05T05:54:49.613Z,12.74
2023-05-05T05:57:17.752Z,12.92
2023-05-05T05:59:45.830Z,13.18
2023-05-05T06:02:14.213Z,13.46
2023-05-05T06:04:42.455Z,13.69
2023-05-05T06:07:10.870Z,13.83
2023-05-05T06:09:38.977Z,13.95
2023-05-05T06:12:07.199Z,14.06
2023-05-05T06:14:36.340Z,14.20
2023-05-05T06:17:04.414Z,14.25
2023-05-05T06:19:33.139Z,14.00
2023-05-05T06:22:01.148Z,13.68
2023-05-05T06:24:29.234Z,13.47
2023-05-05T06:26:59.530Z,13.30
2023-05-05T06:29:28.304Z,13.18
2023-05-05T06:31:56.558Z,13.11
2023-05-05T06:34:24.584Z,13.09
2023-05-05T06:36:52.462Z,13.09
2023-05-05T06:39:20.778Z,13.12
2023-05-05T06:41:48.720Z,13.16
2023-05-05T06:44:16.650Z,13.22
2023-05-05T06:46:44.664Z,13.29
2023-05-05T06:49:12.918Z,13.39
2023-05-05T06:51:42.755Z,13.47
2023-05-05T06:54:11.039Z,13.54
2023-05-05T06:56:38.969Z,13.57
2023-05-05T06:59:06.933Z,13.61
2023-05-05T07:01:34.906Z,13.67
2023-05-05T07:04:03.095Z,13.72
2023-05-05T07:06:32.017Z,13.78
2023-05-05T07:08:59.958Z,13.80
2023-05-05T07:11:28.097Z,13.82
2023-05-05T07:13:56.060Z,13.89
2023-05-05T07:16:27.177Z,13.93
2023-05-05T07:18:55.352Z,14.04
2023-05-05T07:21:23.206Z,14.12
2023-05-05T07:23:51.204Z,14.18
2023-05-05T07:26:19.106Z,14.26
2023-05-05T07:28:47.045Z,14.31
2023-05-05T07:31:14.941Z,14.43
2023-05-05T07:33:42.853Z,14.49
2023-05-05T07:36:10.907Z,14.64
2023-05-05T07:38:38.858Z,14.79
2023-05-05T07:41:06.823Z,14.94
2023-05-05T07:43:34.758Z,15.06
2023-05-05T07:46:02.720Z,15.15
2023-05-05T07:48:30.963Z,15.22
2023-05-05T07:50:59.101Z,15.32
2023-05-05T07:53:27.358Z,15.41
2023-05-05T07:55:55.951Z,15.49
2023-05-05T07:58:24.148Z,15.57
2023-05-05T08:00:52.088Z,15.69
2023-05-05T08:03:24.532Z,15.77
2023-05-05T08:05:54.629Z,15.85
2023-05-05T08:08:25.047Z,15.90
2023-05-05T08:10:53.476Z,15.98
2023-05-05T08:13:21.679Z,16.04
2023-05-05T08:15:49.548Z,16.08
2023-05-05T08:18:17.431Z,16.16
2023-05-05T08:20:45.624Z,16.23
2023-05-05T08:23:13.666Z,16.31
2023-05-05T08:25:41.908Z,16.42
2023-05-05T08:28:10.278Z,16.50
2023-05-05T08:30:38.893Z,16.56
2023-05-05T08:33:06.909Z,16.62
2023-05-05T08:35:34.902Z,16.67
2023-05-05T08:38:02.894Z,16.81
2023-05-05T08:40:36.940Z,16.88
2023-05-05T08:43:05.280Z,17.03
2023-05-05T08:45:34.083Z,17.19
2023-05-05T08:48:04.892Z,17.45
2023-05-05T08:50:33.197Z,17.59
2023-05-05T08:53:10.772Z,17.70
2023-05-05T08:55:46.610Z,17.92
2023-05-05T08:58:16.953Z,18.06
2023-05-05T09:00:45.904Z,18.16
2023-05-05T09:03:15.695Z,18.29
2023-05-05T09:05:44.471Z,18.40
2023-05-05T09:08:12.687Z,18.46
2023-05-05T09:10:41.871Z,18.60
2023-05-05T09:13:09.960Z,18.54
2023-05-05T09:15:39.243Z,18.46
2023-05-05T09:18:12.254Z,18.37
2023-05-05T09:20:41.590Z,18.44
2023-05-05T09:23:20.501Z,18.57
2023-05-05T09:26:04.472Z,18.61
2023-05-05T09:28:32.539Z,18.75
2023-05-05T09:31:15.962Z,18.89
2023-05-05T09:33:44.455Z,18.96
2023-05-05T09:36:12.605Z,19.00
2023-05-05T09:38:40.647Z,19.10
2023-05-05T09:41:08.563Z,19.16
2023-05-05T09:43:52.654Z,19.16
2023-05-05T09:46:21.152Z,19.15
2023-05-05T09:48:49.130Z,19.17
2023-05-05T09:51:29.478Z,19.30
2023-05-05T09:53:57.976Z,19.42
2023-05-05T09:56:38.552Z,19.56
2023-05-05T09:59:09.523Z,19.62
2023-05-05T10:01:38.842Z,19.62
2023-05-05T10:04:07.007Z,19.59
2023-05-05T10:06:44.546Z,19.46
2023-05-05T10:09:12.603Z,19.48
2023-05-05T10:11:46.650Z,19.56
2023-05-05T10:14:16.046Z,19.61
2023-05-05T10:16:49.077Z,19.66
2023-05-05T10:19:19.168Z,19.80
2023-05-05T10:22:01.781Z,19.94
2023-05-05T10:24:38.832Z,19.96
2023-05-05T10:27:17.915Z,19.91
2023-05-05T10:29:50.039Z,19.94
2023-05-05T10:32:52.939Z,19.99
2023-05-05T10:35:22.997Z,20.00
2023-05-05T10:37:51.033Z,19.98
2023-05-05T10:40:22.399Z,19.97
2023-05-05T10:42:51.453Z,20.04
2023-05-05T10:45:19.536Z,20.14
2023-05-05T10:47:47.930Z,20.26
2023-05-05T10:50:36.694Z,20.35
2023-05-05T10:53:32.830Z,20.50
2023-05-05T10:56:10.898Z,20.59
2023-05-05T10:58:58.245Z,20.66
2023-05-05T11:01:31.354Z,20.72
2023-05-05T11:04:19.578Z,20.77
2023-05-05T11:07:14.954Z,20.84
2023-05-05T11:10:03.521Z,20.88
2023-05-05T11:12:34.607Z,20.97
2023-05-05T11:15:22.401Z,21.02
2023-05-05T11:17:51.242Z,21.00
2023-05-05T11:20:43.714Z,21.03
2023-05-05T11:23:11.929Z,21.07
2023-05-05T11:25:44.759Z,21.11
2023-05-05T11:28:18.249Z,21.19
2023-05-05T11:30:55.030Z,21.30
2023-05-05T11:33:23.174Z,21.42
2023-05-05T11:35:55.288Z,21.46
2023-05-05T11:39:05.127Z,21.65
2023-05-05T11:41:33.050Z,21.95
2023-05-05T11:44:14.098Z,22.12
2023-05-05T11:47:04.967Z,22.22
2023-05-05T11:49:38.142Z,22.26
2023-05-05T11:52:12.571Z,22.41
2023-05-05T11:54:47.756Z,22.50
2023-05-05T11:57:19.476Z,22.50
2023-05-05T11:59:52.868Z,22.54
2023-05-05T12:02:22.047Z,22.59
2023-05-05T12:04:51.043Z,22.66
2023-05-05T12:07:20.975Z,22.68
2023-05-05T12:09:50.123Z,22.80
2023-05-05T12:12:18.784Z,22.91
2023-05-05T12:14:52.558Z,22.99
2023-05-05T12:17:22.108Z,23.08
2023-05-05T12:19:54.622Z,23.19
2023-05-05T12:22:24.609Z,23.32
2023-05-05T12:25:00.294Z,23.41
2023-05-05T12:27:28.946Z,23.47
2023-05-05T12:30:10.234Z,23.46
2023-05-05T12:32:38.416Z,23.45
2023-05-05T12:35:07.980Z,23.46
2023-05-05T12:37:36.722Z,23.48
2023-05-05T12:40:06.605Z,23.67
2023-05-05T12:42:40.089Z,23.64
2023-05-05T12:45:17.526Z,23.56
2023-05-05T12:47:45.568Z,23.60
2023-05-05T12:50:13.476Z,23.60
2023-05-05T12:52:45.059Z,23.70
2023-05-05T12:55:13.350Z,23.68
2023-05-05T12:58:01.547Z,23.62
2023-05-05T13:00:29.488Z,23.80
2023-05-05T13:02:58.177Z,23.83
2023-05-05T13:05:34.376Z,23.91
2023-05-05T13:08:03.046Z,23.90
2023-05-05T13:10:31.500Z,23.82
2023-05-05T13:12:59.647Z,23.84
2023-05-05T13:15:28.069Z,23.91
2023-05-05T13:18:00.603Z,24.08
2023-05-05T13:20:29.246Z,24.31
2023-05-05T13:22:57.478Z,24.53
2023-05-05T13:25:25.293Z,24.72
2023-05-05T13:27:53.082Z,24.83
2023-05-05T13:30:21.165Z,24.81
2023-05-05T13:32:49.154Z,24.77
2023-05-05T13:35:20.584Z,24.76
2023-05-05T13:37:49.089Z,24.81
2023-05-05T13:40:16.958Z,24.96
2023-05-05T13:42:44.910Z,25.11
2023-05-05T13:45:14.226Z,25.24
2023-05-05T13:47:43.049Z,25.49
2023-05-05T13:50:11.384Z,25.57
2023-05-05T13:52:39.249Z,25.59
2023-05-05T13:55:07.784Z,25.60
2023-05-05T13:57:35.787Z,25.59
2023-05-05T14:00:04.521Z,25.79
2023-05-05T14:02:35.753Z,25.87
2023-05-05T14:05:04.177Z,25.66
2023-05-05T14:07:32.931Z,25.61
2023-05-05T14:10:00.879Z,25.65
2023-05-05T14:12:28.848Z,25.86
2023-05-05T14:14:56.731Z,26.04
2023-05-05T14:17:27.588Z,26.04
2023-05-05T14:19:55.755Z,25.99
2023-05-05T14:22:23.905Z,25.79
2023-05-05T14:24:51.895Z,25.97
2023-05-05T14:27:19.849Z,26.08
2023-05-05T14:29:47.746Z,26.00
2023-05-05T14:32:15.874Z,25.83
2023-05-05T14:34:43.930Z,25.76
2023-05-05T14:37:11.801Z,25.68
2023-05-05T14:39:39.653Z,25.65
2023-05-05T14:42:07.616Z,25.81
2023-05-05T14:44:36.243Z,25.76
2023-05-05T14:47:04.247Z,25.67
2023-05-05T14:49:32.430Z,25.59
2023-05-05T14:52:00.468Z,25.51
2023-05-05T14:54:29.087Z,25.56
2023-05-05T14:56:58.453Z,25.64
2023-05-05T14:59:27.754Z,25.50
2023-05-05T15:01:56.599Z,25.29
2023-05-05T15:04:24.706Z,25.28
2023-05-05T15:06:52.668Z,25.39
2023-05-05T15:09:20.616Z,25.47
2023-05-05T15:11:48.579Z,25.41
2023-05-05T15:14:16.521Z,25.53
2023-05-05T15:16:46.815Z,25.72
2023-05-05T15:19:14.815Z,25.69
2023-05-05T15:21:42.713Z,25.69
2023-05-05T15:24:10.669Z,25.47
2023-05-05T15:26:38.643Z,25.31
2023-05-05T15:29:06.521Z,25.09
2023-05-05T15:31:34.445Z,25.00
2023-05-05T15:34:02.404Z,24.93
2023-05-05T15:36:30.363Z,24.98
2023-05-05T15:38:58.305Z,25.30
2023-05-05T15:41:29.437Z,25.55
2023-05-05T15:43:58.101Z,25.47
2023-05-05T15:46:26.450Z,25.01
2023-05-05T15:48:54.466Z,24.77
2023-05-05T15:51:22.419Z,24.75
2023-05-05T15:53:52.427Z,24.72
2023-05-05T15:56:20.407Z,24.82
2023-05-05T15:58:48.289Z,24.80
2023-05-05T16:01:16.728Z,24.67
2023-05-05T16:03:44.785Z,24.61
2023-05-05T16:06:12.976Z,24.51
2023-05-05T16:08:40.970Z,24.42
2023-05-05T16:11:08.885Z,24.32
2023-05-05T16:13:39.042Z,24.14
2023-05-05T16:16:07.163Z,23.95
2023-05-05T16:18:35.076Z,23.82
2023-05-05T16:21:03.057Z,23.47
2023-05-05T16:23:30.980Z,22.98
2023-05-05T16:25:58.900Z,22.57
2023-05-05T16:28:27.263Z,22.18
2023-05-05T16:30:55.163Z,21.84
2023-05-05T16:33:23.085Z,21.56
2023-05-05T16:35:51.014Z,21.38
2023-05-05T16:38:18.966Z,21.22
2023-05-05T16:40:46.946Z,21.00
2023-05-05T16:43:14.905Z,20.71
2023-05-05T16:45:43.544Z,20.53
2023-05-05T16:48:12.442Z,20.42
2023-05-05T16:50:40.394Z,20.40
2023-05-05T16:53:09.306Z,20.28
2023-05-05T16:55:37.567Z,20.13
2023-05-05T16:58:05.558Z,19.94
2023-05-05T17:00:33.911Z,19.75
2023-05-05T17:03:01.847Z,19.59
2023-05-05T17:05:30.189Z,19.39
2023-05-05T17:07:58.687Z,19.21
2023-05-05T17:10:27.191Z,18.99
2023-05-05T17:12:55.156Z,18.73
2023-05-05T17:15:23.099Z,18.49
2023-05-05T17:17:51.109Z,18.42
2023-05-05T17:20:19.069Z,18.42
2023-05-05T17:22:47.031Z,18.43
2023-05-05T17:25:14.999Z,18.52
2023-05-05T17:27:42.904Z,18.60
2023-05-05T17:30:11.186Z,18.61
2023-05-05T17:32:39.224Z,18.59
2023-05-05T17:35:07.703Z,18.52
2023-05-05T17:37:36.728Z,18.36
2023-05-05T17:40:05.739Z,18.15
2023-05-05T17:42:33.801Z,17.96
2023-05-05T17:45:03.034Z,17.83
2023-05-05T17:47:31.078Z,17.71
2023-05-05T17:49:59.527Z,17.51
2023-05-05T17:52:27.556Z,17.25
2023-05-05T17:54:55.617Z,17.06
2023-05-05T17:57:23.762Z,16.84
2023-05-05T17:59:53.749Z,16.67
2023-05-05T18:02:22.132Z,16.46
2023-05-05T18:04:50.113Z,16.34
2023-05-05T18:07:18.007Z,16.23
2023-05-05T18:09:45.906Z,16.12
2023-05-05T18:12:13.860Z,15.97
2023-05-05T18:14:41.866Z,15.86
2023-05-05T18:17:09.783Z,15.77
2023-05-05T18:19:39.148Z,15.65
2023-05-05T18:22:07.167Z,15.52
2023-05-05T18:24:35.124Z,15.25
2023-05-05T18:27:06.040Z,14.84
2023-05-05T18:29:35.329Z,14.43
2023-05-05T18:32:05.876Z,14.17
2023-05-05T18:34:34.475Z,14.23
2023-05-05T18:37:02.485Z,14.33
2023-05-05T18:39:30.417Z,14.36
2023-05-05T18:41:58.395Z,14.40
2023-05-05T18:44:26.611Z,14.42
2023-05-05T18:46:54.597Z,14.36
2023-05-05T18:49:23.395Z,14.41
2023-05-05T18:51:52.202Z,14.47
2023-05-05T18:54:21.367Z,14.50
2023-05-05T18:56:49.981Z,14.48
2023-05-05T18:59:17.916Z,14.26
2023-05-05T19:01:46.100Z,13.90
2023-05-05T19:04:29.587Z,13.58
2023-05-05T19:06:59.564Z,13.31
2023-05-05T19:09:27.934Z,13.03
2023-05-05T19:11:56.381Z,12.80
2023-05-05T19:14:24.473Z,12.62
2023-05-05T19:16:53.036Z,12.45
2023-05-05T19:19:21.263Z,12.28
2023-05-05T19:21:49.174Z,12.14
2023-05-05T19:24:17.082Z,12.02
2023-05-05T19:26:45.149Z,11.94
2023-05-05T19:29:13.301Z,11.87
2023-05-05T19:31:41.329Z,11.79
2023-05-05T19:34:09.328Z,11.72
2023-05-05T19:36:38.128Z,11.66
2023-05-05T19:39:06.076Z,11.58
2023-05-05T19:41:35.543Z,11.50
2023-05-05T19:44:03.728Z,11.46
2023-05-05T19:46:31.803Z,11.40
2023-05-05T19:48:59.699Z,11.36
2023-05-05T19:51:27.635Z,11.33
2023-05-05T19:53:55.616Z,11.30
2023-05-05T19:56:24.033Z,11.26
2023-05-05T19:58:54.348Z,11.21
2023-05-05T20:01:22.547Z,11.17
2023-05-05T20:03:51.536Z,11.16
2023-05-05T20:06:19.810Z,11.16
2023-05-05T20:08:47.746Z,11.18
2023-05-05T20:11:17.066Z,11.22
2023-05-05T20:13:45.001Z,11.25
2023-05-05T20:16:13.831Z,11.27
2023-05-05T20:18:41.792Z,11.29
2023-05-05T20:21:09.775Z,11.30
2023-05-05T20:23:37.764Z,11.30
2023-05-05T20:26:06.435Z,11.31
2023-05-05T20:28:34.478Z,11.31
2023-05-05T20:31:02.435Z,11.30
2023-05-05T20:33:30.419Z,11.33
2023-05-05T20:35:58.328Z,11.37
2023-05-05T20:38:26.291Z,11.41
2023-05-05T20:40:54.183Z,11.43
2023-05-05T20:43:22.058Z,11.45
2023-05-05T20:45:49.957Z,11.47
2023-05-05T20:48:18.017Z,11.49
2023-05-05T20:50:45.931Z,11.52
2023-05-05T20:53:15.157Z,11.54
2023-05-05T20:55:43.600Z,11.56
2023-05-05T20:58:11.830Z,11.60
2023-05-05T21:00:40.180Z,11.67
2023-05-05T21:03:08.317Z,11.72
2023-05-05T21:05:37.368Z,11.79
2023-05-05T21:08:05.572Z,11.87
2023-05-05T21:10:33.802Z,11.99
2023-05-05T21:13:03.066Z,12.14
2023-05-05T21:15:32.029Z,12.25
2023-05-05T21:18:00.003Z,12.32
2023-05-05T21:20:27.964Z,12.36
2023-05-05T21:22:56.998Z,12.36
2023-05-05T21:25:25.504Z,12.34
2023-05-05T21:27:53.466Z,12.27
2023-05-05T21:30:23.187Z,12.20
2023-05-05T21:32:52.099Z,12.15
2023-05-05T21:35:20.079Z,12.13
2023-05-05T21:37:48.937Z,12.12
2023-05-05T21:40:16.902Z,12.12
2023-05-05T21:42:45.169Z,12.11
2023-05-05T21:45:13.130Z,12.10
2023-05-05T21:47:41.148Z,12.04
2023-05-05T21:50:10.407Z,12.01
2023-05-05T21:52:38.701Z,11.99
2023-05-05T21:55:07.030Z,11.95
2023-05-05T21:57:35.043Z,11.93
2023-05-05T22:00:06.076Z,11.88
2023-05-05T22:02:40.493Z,11.83
2023-05-05T22:05:09.373Z,11.77
2023-05-05T22:07:37.273Z,11.71
2023-05-05T22:10:05.587Z,11.64
2023-05-05T22:12:33.605Z,11.56
2023-05-05T22:15:01.751Z,11.48
2023-05-05T22:17:29.691Z,11.42
2023-05-05T22:19:57.664Z,11.36
2023-05-05T22:22:25.607Z,11.31
2023-05-05T22:24:53.527Z,11.28
2023-05-05T22:27:21.464Z,11.26
2023-05-05T22:29:49.448Z,11.25
2023-05-05T22:32:17.330Z,11.23
2023-05-05T22:34:45.212Z,11.22
2023-05-05T22:37:14.175Z,11.20
2023-05-05T22:39:42.094Z,11.18
2023-05-05T22:42:09.973Z,11.15
2023-05-05T22:44:38.935Z,11.14
2023-05-05T22:47:07.135Z,11.15
2023-05-05T22:49:35.235Z,11.15
2023-05-05T22:52:03.602Z,11.15
2023-05-05T22:54:32.038Z,11.15
2023-05-05T22:57:00.020Z,11.18
2023-05-05T22:59:27.922Z,11.19
2023-05-05T23:01:55.882Z,11.19
2023-05-05T23:04:23.988Z,11.19
2023-05-05T23:06:52.122Z,11.20
2023-05-05T23:09:20.081Z,11.19
2023-05-05T23:11:47.998Z,11.19
2023-05-05T23:14:16.998Z,11.17
2023-05-05T23:16:47.808Z,11.14
2023-05-05T23:19:15.781Z,11.11
2023-05-05T23:21:52.727Z,11.09
2023-05-05T23:24:22.105Z,11.04
2023-05-05T23:26:52.014Z,11.01
2023-05-05T23:29:20.782Z,10.98
2023-05-05T23:31:48.705Z,10.94
2023-05-05T23:34:16.647Z,10.90
2023-05-05T23:36:44.546Z,10.86
2023-05-05T23:39:12.444Z,10.83
2023-05-05T23:41:40.435Z,10.79
2023-05-05T23:44:08.469Z,10.76
2023-05-05T23:46:36.469Z,10.72
2023-05-05T23:49:04.427Z,10.68
2023-05-05T23:51:32.925Z,10.65
2023-05-05T23:54:01.279Z,10.62
2023-05-05T23:56:29.167Z,10.58
2023-05-05T23:58:57.050Z,10.54
